Time;durP1;ratioP1;P1;durP2;ratioP2;P2;SDS_P1;SDS_P2;PMS_P1;PMS_P2;Temp;Humidity;BMP_temperature;BMP_pressure;BME280_temperature;BME280_humidity;BME280_pressure;Samples;Min_cycle;Max_cycle;Signal;HPM_P1;HPM_P2
2023/04/17 00:01:55;;;;;;;35.88;23.40;;;;;;;;;;5055761;28;20048;-82
2023/04/17 00:04:21;;;;;;;37.85;24.00;;;;;;;;;;5043809;28;20048;-83
2023/04/17 00:06:48;;;;;;;33.40;22.35;;;;;;;;;;5055566;28;20331;-82
2023/04/17 00:09:14;;;;;;;36.92;23.60;;;;;;;;;;5033277;28;20195;-82
2023/04/17 00:11:40;;;;;;;33.08;22.95;;;;;;;;;;5038077;28;20155;-82
2023/04/17 00:14:06;;;;;;;31.35;21.45;;;;;;;;;;5047698;28;20040;-82
2023/04/17 00:16:32;;;;;;;32.17;20.55;;;;;;;;;;5062516;28;20048;-82
2023/04/17 00:18:58;;;;;;;31.63;22.33;;;;;;;;;;5065631;28;20120;-82
2023/04/17 00:21:25;;;;;;;35.85;23.70;;;;;;;;;;5070804;28;20052;-82
2023/04/17 00:23:51;;;;;;;35.05;23.83;;;;;;;;;;5059263;28;20052;-83
2023/04/17 00:26:18;;;;;;;34.10;23.95;;;;;;;;;;5055842;28;20037;-83
2023/04/17 00:28:46;;;;;;;35.95;25.00;;;;;;;;;;5037191;28;20501;-82
2023/04/17 00:31:12;;;;;;;35.90;25.40;;;;;;;;;;5039375;28;20049;-82
2023/04/17 00:33:41;;;;;;;39.92;27.45;;;;;;;;;;5041040;28;20052;-82
2023/04/17 00:36:07;;;;;;;28.83;21.25;;;;;;;;;;5039543;28;20102;-82
2023/04/17 00:38:33;;;;;;;29.92;21.60;;;;;;;;;;5034989;28;20051;-82
2023/04/17 00:41:00;;;;;;;31.60;23.25;;;;;;;;;;5052798;28;20044;-82
2023/04/17 00:43:26;;;;;;;30.45;22.25;;;;;;;;;;5052058;28;20203;-82
2023/04/17 00:45:53;;;;;;;40.63;24.73;;;;;;;;;;5039747;28;20448;-83
2023/04/17 00:48:22;;;;;;;34.65;24.08;;;;;;;;;;5052073;28;20045;-83
2023/04/17 00:50:49;;;;;;;33.08;22.45;;;;;;;;;;5041312;28;20072;-82
2023/04/17 00:53:15;;;;;;;29.63;20.88;;;;;;;;;;5055562;28;20047;-82
2023/04/17 00:55:42;;;;;;;28.80;20.90;;;;;;;;;;5062119;28;20048;-82
2023/04/17 00:58:09;;;;;;;34.17;23.50;;;;;;;;;;5052843;28;20100;-82
2023/04/17 01:00:35;;;;;;;37.15;24.92;;;;;;;;;;5052601;28;20091;-82
2023/04/17 01:03:01;;;;;;;37.38;25.20;;;;;;;;;;5054722;28;20045;-82
2023/04/17 01:05:27;;;;;;;33.97;22.17;;;;;;;;;;5032833;28;20045;-82
2023/04/17 01:07:54;;;;;;;32.35;22.52;;;;;;;;;;5033692;28;20037;-82
2023/04/17 01:10:20;;;;;;;30.80;21.73;;;;;;;;;;5052823;28;20041;-82
2023/04/17 01:12:48;;;;;;;37.00;23.38;;;;;;;;;;5037314;28;20080;-82
2023/04/17 01:15:14;;;;;;;32.42;22.58;;;;;;;;;;5044665;28;20545;-82
2023/04/17 01:17:40;;;;;;;31.33;22.45;;;;;;;;;;5054421;28;20048;-82
2023/04/17 01:20:10;;;;;;;32.95;22.13;;;;;;;;;;5055087;28;20040;-82
2023/04/17 01:22:36;;;;;;;30.08;21.55;;;;;;;;;;5057780;28;20075;-82
2023/04/17 01:25:03;;;;;;;32.58;22.05;;;;;;;;;;5032771;28;20040;-82
2023/04/17 01:27:29;;;;;;;31.35;21.65;;;;;;;;;;5032972;28;20057;-82
2023/04/17 01:29:56;;;;;;;32.45;22.48;;;;;;;;;;5034675;28;20098;-82
2023/04/17 01:32:22;;;;;;;38.22;23.15;;;;;;;;;;5051790;28;20041;-82
2023/04/17 01:34:48;;;;;;;36.58;23.25;;;;;;;;;;5056965;28;20037;-82
2023/04/17 01:37:14;;;;;;;36.90;24.58;;;;;;;;;;5051653;28;20466;-82
2023/04/17 01:39:40;;;;;;;37.00;25.17;;;;;;;;;;5049040;28;20090;-82
2023/04/17 01:42:06;;;;;;;38.85;25.02;;;;;;;;;;5052974;28;20041;-81
2023/04/17 01:44:32;;;;;;;34.53;22.98;;;;;;;;;;5034630;28;20067;-82
2023/04/17 01:46:58;;;;;;;35.40;22.90;;;;;;;;;;5053569;28;20048;-83
2023/04/17 01:49:25;;;;;;;34.08;23.33;;;;;;;;;;5051341;28;20054;-83
2023/04/17 01:51:51;;;;;;;33.88;23.42;;;;;;;;;;5036593;28;20053;-83
2023/04/17 01:54:17;;;;;;;37.20;23.40;;;;;;;;;;5055816;28;20044;-83
2023/04/17 01:56:43;;;;;;;31.65;22.13;;;;;;;;;;5050299;28;20049;-83
2023/04/17 01:59:09;;;;;;;30.27;21.15;;;;;;;;;;5055179;28;20033;-83
2023/04/17 02:01:35;;;;;;;35.85;24.75;;;;;;;;;;5046535;28;20396;-81
2023/04/17 02:04:01;;;;;;;34.72;22.92;;;;;;;;;;5060270;28;20484;-80
2023/04/17 02:06:27;;;;;;;34.58;23.48;;;;;;;;;;5039442;28;20076;-81
2023/04/17 02:08:53;;;;;;;32.67;22.13;;;;;;;;;;5057400;28;20578;-81
2023/04/17 02:11:19;;;;;;;28.17;19.83;;;;;;;;;;5051983;28;20037;-81
2023/04/17 02:13:45;;;;;;;28.80;20.13;;;;;;;;;;5040286;28;20118;-81
2023/04/17 02:16:11;;;;;;;31.45;19.60;;;;;;;;;;5054888;28;20514;-80
2023/04/17 02:18:38;;;;;;;29.20;21.08;;;;;;;;;;5052050;28;20041;-81
2023/04/17 02:21:04;;;;;;;32.28;20.27;;;;;;;;;;5057797;28;20129;-81
2023/04/17 02:23:30;;;;;;;30.65;21.38;;;;;;;;;;5035747;28;20076;-80
2023/04/17 02:25:57;;;;;;;29.58;20.20;;;;;;;;;;5041013;28;20130;-81
2023/04/17 02:28:23;;;;;;;29.77;19.80;;;;;;;;;;5037797;28;20472;-81
2023/04/17 02:30:49;;;;;;;35.83;21.70;;;;;;;;;;5039718;28;20041;-80
2023/04/17 02:33:15;;;;;;;32.65;22.02;;;;;;;;;;5044197;28;20048;-81
2023/04/17 02:35:41;;;;;;;32.42;22.10;;;;;;;;;;5044449;28;20048;-81
2023/04/17 02:38:07;;;;;;;31.45;20.42;;;;;;;;;;5039886;28;20103;-81
2023/04/17 02:40:33;;;;;;;32.40;19.98;;;;;;;;;;5052425;28;20048;-81
2023/04/17 02:42:59;;;;;;;29.83;19.52;;;;;;;;;;5037683;28;20060;-81
2023/04/17 02:45:25;;;;;;;31.70;20.15;;;;;;;;;;5044532;28;20052;-81
2023/04/17 02:47:54;;;;;;;31.35;20.33;;;;;;;;;;5065726;28;20448;-80
2023/04/17 02:50:20;;;;;;;33.58;19.10;;;;;;;;;;5061601;28;20045;-80
2023/04/17 02:52:46;;;;;;;33.42;20.30;;;;;;;;;;5057932;28;20052;-81
2023/04/17 02:55:12;;;;;;;34.38;20.50;;;;;;;;;;5040330;28;20037;-80
2023/04/17 02:57:38;;;;;;;33.45;21.02;;;;;;;;;;5057529;28;20436;-81
2023/04/17 03:00:12;;;;;;;30.10;20.52;;;;;;;;;;5065177;28;20493;-81
2023/04/17 03:02:38;;;;;;;29.25;19.83;;;;;;;;;;5038845;28;20083;-80
2023/04/17 03:05:05;;;;;;;28.02;19.40;;;;;;;;;;5040764;28;20441;-80
2023/04/17 03:07:32;;;;;;;28.02;19.05;;;;;;;;;;5042830;28;20045;-81
2023/04/17 03:09:58;;;;;;;32.95;19.85;;;;;;;;;;5042922;28;20443;-80
2023/04/17 03:12:24;;;;;;;33.38;20.45;;;;;;;;;;5035316;28;20071;-81
2023/04/17 03:14:51;;;;;;;32.35;20.30;;;;;;;;;;5039677;28;20048;-80
2023/04/17 03:17:19;;;;;;;30.35;20.17;;;;;;;;;;5035225;28;20076;-80
2023/04/17 03:19:45;;;;;;;29.52;20.15;;;;;;;;;;5055586;28;20125;-81
2023/04/17 03:22:12;;;;;;;28.08;19.17;;;;;;;;;;5060414;28;20051;-81
2023/04/17 03:24:38;;;;;;;28.70;19.27;;;;;;;;;;5054908;28;20037;-81
2023/04/17 03:27:04;;;;;;;34.53;20.52;;;;;;;;;;5062477;28;20032;-81
2023/04/17 03:29:30;;;;;;;35.40;20.55;;;;;;;;;;5049216;28;20055;-81
2023/04/17 03:31:56;;;;;;;34.17;21.77;;;;;;;;;;5056531;28;20041;-81
2023/04/17 03:34:22;;;;;;;34.55;20.02;;;;;;;;;;5042809;28;20041;-80
2023/04/17 03:36:48;;;;;;;33.20;20.95;;;;;;;;;;5039631;28;20041;-81
2023/04/17 03:39:15;;;;;;;31.38;20.35;;;;;;;;;;5051230;28;20059;-80
2023/04/17 03:41:41;;;;;;;31.95;19.98;;;;;;;;;;5058487;28;20514;-80
2023/04/17 03:44:11;;;;;;;34.42;20.60;;;;;;;;;;5059094;28;20045;-81
2023/04/17 03:46:37;;;;;;;35.47;21.15;;;;;;;;;;5058329;28;20055;-81
2023/04/17 03:49:03;;;;;;;32.60;20.10;;;;;;;;;;5065935;28;20064;-80
2023/04/17 03:51:30;;;;;;;30.35;20.17;;;;;;;;;;5047335;28;20102;-80
2023/04/17 03:53:56;;;;;;;30.48;20.92;;;;;;;;;;5068546;28;20037;-80
2023/04/17 03:56:22;;;;;;;31.48;21.95;;;;;;;;;;5067063;28;20060;-81
2023/04/17 03:58:48;;;;;;;36.58;22.27;;;;;;;;;;5054714;28;20480;-80
2023/04/17 04:01:14;;;;;;;32.40;21.75;;;;;;;;;;5056099;28;20051;-80
2023/04/17 04:03:40;;;;;;;31.77;21.73;;;;;;;;;;5038889;28;20075;-81
2023/04/17 04:06:06;;;;;;;39.78;23.35;;;;;;;;;;5042445;28;20044;-81
2023/04/17 04:08:33;;;;;;;32.63;20.85;;;;;;;;;;5061969;28;20530;-82
2023/04/17 04:11:00;;;;;;;35.47;21.38;;;;;;;;;;5060186;28;20513;-81
2023/04/17 04:13:26;;;;;;;33.75;21.20;;;;;;;;;;5039648;28;20167;-83
2023/04/17 04:15:52;;;;;;;36.55;22.05;;;;;;;;;;5034231;28;20051;-82
2023/04/17 04:18:18;;;;;;;33.25;21.55;;;;;;;;;;5056441;28;20047;-82
2023/04/17 04:20:44;;;;;;;34.83;21.83;;;;;;;;;;5040347;28;20079;-82
2023/04/17 04:23:11;;;;;;;34.92;22.77;;;;;;;;;;5039209;28;20057;-82
2023/04/17 04:25:40;;;;;;;41.95;22.30;;;;;;;;;;5050119;28;20132;-82
2023/04/17 04:28:07;;;;;;;37.33;22.45;;;;;;;;;;5034552;28;20080;-82
2023/04/17 04:30:37;;;;;;;36.38;22.63;;;;;;;;;;5036779;28;20048;-83
2023/04/17 04:33:07;;;;;;;33.17;21.70;;;;;;;;;;5050892;28;20079;-82
2023/04/17 04:35:33;;;;;;;40.60;24.00;;;;;;;;;;5057875;28;20053;-82
2023/04/17 04:38:01;;;;;;;35.78;22.60;;;;;;;;;;5051528;28;20045;-83
2023/04/17 04:40:34;;;;;;;33.83;21.58;;;;;;;;;;5052118;28;20059;-82
2023/04/17 04:43:00;;;;;;;34.58;22.25;;;;;;;;;;5060979;28;20048;-82
2023/04/17 04:45:26;;;;;;;39.80;23.73;;;;;;;;;;5059142;28;20145;-82
2023/04/17 04:47:52;;;;;;;38.22;23.67;;;;;;;;;;5039382;28;20123;-81
2023/04/17 04:50:19;;;;;;;35.42;22.10;;;;;;;;;;5037674;28;20036;-82
2023/04/17 04:52:45;;;;;;;35.85;23.48;;;;;;;;;;5064893;28;20056;-80
2023/04/17 04:55:11;;;;;;;37.13;22.60;;;;;;;;;;5036494;28;20060;-79
2023/04/17 04:57:37;;;;;;;34.78;21.58;;;;;;;;;;5054874;28;20056;-81
2023/04/17 05:00:08;;;;;;;35.92;21.83;;;;;;;;;;5035077;28;20052;-81
2023/04/17 05:02:34;;;;;;;32.55;20.33;;;;;;;;;;5060397;28;20045;-81
2023/04/17 05:05:00;;;;;;;33.72;22.70;;;;;;;;;;5058092;28;20041;-80
2023/04/17 05:07:27;;;;;;;37.22;23.20;;;;;;;;;;5038591;28;20294;-80
2023/04/17 05:10:02;;;;;;;35.85;22.92;;;;;;;;;;5056619;28;20045;-81
2023/04/17 05:12:28;;;;;;;35.80;22.58;;;;;;;;;;5039443;28;20075;-80
2023/04/17 05:14:54;;;;;;;38.17;23.58;;;;;;;;;;5042098;28;20055;-80
2023/04/17 05:17:20;;;;;;;36.78;22.40;;;;;;;;;;5052820;28;20053;-80
2023/04/17 05:19:46;;;;;;;38.38;23.27;;;;;;;;;;5039697;28;20370;-80
2023/04/17 05:22:12;;;;;;;33.42;21.75;;;;;;;;;;5058905;28;20045;-79
2023/04/17 05:24:38;;;;;;;37.03;22.05;;;;;;;;;;5034737;28;20131;-80
2023/04/17 05:27:04;;;;;;;41.30;24.52;;;;;;;;;;5056830;28;20068;-81
2023/04/17 05:29:31;;;;;;;37.20;22.73;;;;;;;;;;5031784;28;20063;-81
2023/04/17 05:31:57;;;;;;;38.03;20.92;;;;;;;;;;5042738;28;20041;-81
2023/04/17 05:34:24;;;;;;;35.38;22.40;;;;;;;;;;5051060;28;20044;-81
2023/04/17 05:36:50;;;;;;;37.08;22.73;;;;;;;;;;5060837;28;20064;-78
2023/04/17 05:39:16;;;;;;;36.58;23.50;;;;;;;;;;5059454;28;20092;-81
2023/04/17 05:41:42;;;;;;;40.40;24.80;;;;;;;;;;5056351;28;20052;-80
2023/04/17 05:44:08;;;;;;;45.58;26.23;;;;;;;;;;5036492;28;20063;-81
2023/04/17 05:46:34;;;;;;;43.97;25.50;;;;;;;;;;5051716;28;20041;-81
2023/04/17 05:49:01;;;;;;;47.65;27.17;;;;;;;;;;5056610;28;20488;-80
2023/04/17 05:51:27;;;;;;;49.40;28.77;;;;;;;;;;5055728;28;20766;-80
2023/04/17 05:53:53;;;;;;;48.13;27.45;;;;;;;;;;5056689;28;20446;-81
2023/04/17 05:56:19;;;;;;;47.17;28.73;;;;;;;;;;5032958;28;20057;-81
2023/04/17 05:58:45;;;;;;;47.60;27.80;;;;;;;;;;5024947;28;20049;-81
2023/04/17 06:01:15;;;;;;;44.45;26.67;;;;;;;;;;5019626;28;20497;-81
2023/04/17 06:03:41;;;;;;;41.63;25.05;;;;;;;;;;5030087;28;20099;-81
2023/04/17 06:06:07;;;;;;;37.28;24.30;;;;;;;;;;5019889;28;20084;-82
2023/04/17 06:08:33;;;;;;;37.17;23.42;;;;;;;;;;5017888;28;20085;-82
2023/04/17 06:11:00;;;;;;;38.72;23.05;;;;;;;;;;5032687;28;20136;-80
2023/04/17 06:13:26;;;;;;;39.10;23.58;;;;;;;;;;5024260;28;20045;-81
2023/04/17 06:15:52;;;;;;;38.85;22.50;;;;;;;;;;5016716;28;20125;-81
2023/04/17 06:18:18;;;;;;;38.80;22.80;;;;;;;;;;5035055;28;20129;-81
2023/04/17 06:20:44;;;;;;;39.92;23.67;;;;;;;;;;5016473;28;20075;-81
2023/04/17 06:23:10;;;;;;;38.85;23.73;;;;;;;;;;5038592;28;20099;-81
2023/04/17 06:25:36;;;;;;;42.67;24.10;;;;;;;;;;5039810;28;20048;-82
2023/04/17 06:28:02;;;;;;;33.65;22.25;;;;;;;;;;5021537;28;20037;-81
2023/04/17 06:30:28;;;;;;;36.28;22.60;;;;;;;;;;5037813;28;20504;-81
2023/04/17 06:32:55;;;;;;;40.10;23.67;;;;;;;;;;5019287;28;20544;-81
2023/04/17 06:35:21;;;;;;;39.67;23.35;;;;;;;;;;5020547;28;20041;-81
2023/04/17 06:37:47;;;;;;;42.40;25.63;;;;;;;;;;5032891;28;20053;-80
2023/04/17 06:40:13;;;;;;;42.75;24.60;;;;;;;;;;5041460;28;20416;-80
2023/04/17 06:42:39;;;;;;;43.50;24.83;;;;;;;;;;5023561;28;20137;-80
2023/04/17 06:45:05;;;;;;;46.45;24.50;;;;;;;;;;5033954;28;20041;-81
2023/04/17 06:47:31;;;;;;;42.80;24.83;;;;;;;;;;5017979;28;20075;-80
2023/04/17 06:49:58;;;;;;;42.08;24.67;;;;;;;;;;5027431;28;20046;-80
2023/04/17 06:52:25;;;;;;;41.60;24.63;;;;;;;;;;5036837;28;20045;-80
2023/04/17 06:54:53;;;;;;;37.72;22.70;;;;;;;;;;5036966;28;20132;-80
2023/04/17 06:57:20;;;;;;;36.17;22.00;;;;;;;;;;5062229;28;20060;-80
2023/04/17 06:59:47;;;;;;;35.00;21.02;;;;;;;;;;5059155;28;20440;-80
2023/04/17 07:02:13;;;;;;;36.17;21.67;;;;;;;;;;5054750;28;20033;-80
2023/04/17 07:04:39;;;;;;;36.00;21.98;;;;;;;;;;5054420;28;20812;-80
2023/04/17 07:07:05;;;;;;;37.78;22.77;;;;;;;;;;5042497;28;20386;-80
2023/04/17 07:09:31;;;;;;;40.25;22.02;;;;;;;;;;5055598;28;20056;-80
2023/04/17 07:11:57;;;;;;;38.63;22.90;;;;;;;;;;5065519;28;20040;-80
2023/04/17 07:14:23;;;;;;;37.17;22.10;;;;;;;;;;5056000;28;20136;-80
2023/04/17 07:16:49;;;;;;;38.70;21.10;;;;;;;;;;5043615;28;20056;-81
2023/04/17 07:19:15;;;;;;;37.58;21.90;;;;;;;;;;5060379;28;20044;-81
2023/04/17 07:21:41;;;;;;;32.72;20.20;;;;;;;;;;5046892;28;20053;-80
2023/04/17 07:24:07;;;;;;;30.27;20.27;;;;;;;;;;5055492;28;20048;-81
2023/04/17 07:26:33;;;;;;;31.77;20.17;;;;;;;;;;5072972;28;20053;-81
2023/04/17 07:29:01;;;;;;;34.15;19.90;;;;;;;;;;5044500;28;20041;-80
2023/04/17 07:31:27;;;;;;;35.67;20.75;;;;;;;;;;5062713;28;20053;-81
2023/04/17 07:33:53;;;;;;;31.85;19.75;;;;;;;;;;5042514;28;20052;-81
2023/04/17 07:36:19;;;;;;;35.65;21.10;;;;;;;;;;5038008;28;20051;-81
2023/04/17 07:38:45;;;;;;;34.70;19.80;;;;;;;;;;5055238;28;20089;-81
2023/04/17 07:41:11;;;;;;;33.72;20.67;;;;;;;;;;5053815;28;20497;-81
2023/04/17 07:43:37;;;;;;;30.15;19.63;;;;;;;;;;5058090;28;20041;-81
2023/04/17 07:46:04;;;;;;;28.95;19.73;;;;;;;;;;5054262;28;20037;-81
2023/04/17 07:48:30;;;;;;;36.70;23.55;;;;;;;;;;5035272;28;20048;-81
2023/04/17 07:50:59;;;;;;;39.53;23.85;;;;;;;;;;5058686;28;20048;-81
2023/04/17 07:53:27;;;;;;;39.15;23.55;;;;;;;;;;5047010;28;20053;-81
2023/04/17 07:55:53;;;;;;;37.65;23.20;;;;;;;;;;5036230;28;20057;-80
2023/04/17 07:58:19;;;;;;;34.80;22.67;;;;;;;;;;5040158;28;20052;-81
2023/04/17 08:00:46;;;;;;;34.08;21.55;;;;;;;;;;5040804;28;20040;-81
2023/04/17 08:03:13;;;;;;;32.28;20.88;;;;;;;;;;5034839;28;20558;-81
2023/04/17 08:05:39;;;;;;;30.63;19.33;;;;;;;;;;5040507;28;20045;-81
2023/04/17 08:08:05;;;;;;;31.85;20.67;;;;;;;;;;5045077;28;20047;-81
2023/04/17 08:10:31;;;;;;;33.92;22.67;;;;;;;;;;5036115;28;20692;-81
2023/04/17 08:12:57;;;;;;;34.78;22.63;;;;;;;;;;5060710;28;20040;-81
2023/04/17 08:15:23;;;;;;;34.90;22.52;;;;;;;;;;5037305;28;20036;-82
2023/04/17 08:17:49;;;;;;;34.83;23.08;;;;;;;;;;5049754;28;20044;-81
2023/04/17 08:20:17;;;;;;;29.85;21.75;;;;;;;;;;5053703;28;20044;-82
2023/04/17 08:22:44;;;;;;;31.38;21.63;;;;;;;;;;5054197;28;20071;-81
2023/04/17 08:25:11;;;;;;;27.75;20.10;;;;;;;;;;5050563;28;20243;-82
2023/04/17 08:27:42;;;;;;;30.55;20.98;;;;;;;;;;5056319;28;20060;-82
2023/04/17 08:30:10;;;;;;;32.53;21.63;;;;;;;;;;5055851;28;20040;-81
2023/04/17 08:32:46;;;;;;;32.78;21.65;;;;;;;;;;5047863;28;20045;-81
2023/04/17 08:35:13;;;;;;;31.80;20.98;;;;;;;;;;5035790;28;20075;-81
2023/04/17 08:37:43;;;;;;;33.83;22.17;;;;;;;;;;5052892;28;20053;-81
2023/04/17 08:40:12;;;;;;;35.13;21.63;;;;;;;;;;5059419;28;20043;-82
2023/04/17 08:42:40;;;;;;;27.60;19.42;;;;;;;;;;5034171;28;20059;-82
2023/04/17 08:45:08;;;;;;;26.33;18.95;;;;;;;;;;5051527;28;20098;-82
2023/04/17 08:47:34;;;;;;;30.95;20.85;;;;;;;;;;5053400;28;20053;-80
2023/04/17 08:50:21;;;;;;;29.27;20.45;;;;;;;;;;5063706;28;20036;-80
2023/04/17 08:52:48;;;;;;;27.08;19.52;;;;;;;;;;5057928;28;20083;-81
2023/04/17 08:55:15;;;;;;;28.40;19.98;;;;;;;;;;5051641;28;20043;-80
2023/04/17 08:58:00;;;;;;;29.90;20.40;;;;;;;;;;5047734;28;20148;-80
2023/04/17 09:00:30;;;;;;;29.00;19.67;;;;;;;;;;5041112;28;20056;-80
2023/04/17 09:02:57;;;;;;;30.17;20.30;;;;;;;;;;5053536;28;20041;-82
2023/04/17 09:05:24;;;;;;;30.55;20.08;;;;;;;;;;5057570;28;20040;-80
2023/04/17 09:08:04;;;;;;;34.28;21.88;;;;;;;;;;5038135;28;20055;-80
2023/04/17 09:10:37;;;;;;;32.05;20.65;;;;;;;;;;5054281;28;20132;-80
2023/04/17 09:13:04;;;;;;;31.08;20.77;;;;;;;;;;5038296;28;20064;-80
2023/04/17 09:15:30;;;;;;;27.50;18.88;;;;;;;;;;5056339;28;20051;-80
2023/04/17 09:17:56;;;;;;;25.67;19.15;;;;;;;;;;5058753;28;20345;-80
2023/04/17 09:20:22;;;;;;;25.83;18.45;;;;;;;;;;5050041;28;20084;-80
2023/04/17 09:22:48;;;;;;;27.50;18.83;;;;;;;;;;5034245;28;20119;-80
2023/04/17 09:25:15;;;;;;;24.02;17.08;;;;;;;;;;5033264;28;20037;-80
2023/04/17 09:27:42;;;;;;;26.80;17.92;;;;;;;;;;5053064;28;20649;-80
2023/04/17 09:30:08;;;;;;;24.45;18.00;;;;;;;;;;5053246;28;20041;-80
2023/04/17 09:32:34;;;;;;;28.33;18.85;;;;;;;;;;5052787;28;20048;-82
2023/04/17 09:35:01;;;;;;;30.25;19.27;;;;;;;;;;5069516;28;20051;-81
2023/04/17 09:37:49;;;;;;;27.92;18.75;;;;;;;;;;5050931;28;20045;-81
2023/04/17 09:40:15;;;;;;;30.73;19.83;;;;;;;;;;5055126;28;20041;-81
2023/04/17 09:42:54;;;;;;;29.80;20.25;;;;;;;;;;5063764;28;20041;-81
2023/04/17 09:45:21;;;;;;;30.05;19.83;;;;;;;;;;5039210;28;20041;-81
2023/04/17 09:47:47;;;;;;;28.35;18.70;;;;;;;;;;5037240;28;20095;-81
2023/04/17 09:50:17;;;;;;;29.80;20.27;;;;;;;;;;5062606;28;20067;-81
2023/04/17 09:52:43;;;;;;;28.23;19.90;;;;;;;;;;5056193;28;20040;-81
2023/04/17 09:55:15;;;;;;;27.60;19.05;;;;;;;;;;5031790;28;20119;-80
2023/04/17 09:57:41;;;;;;;30.05;20.60;;;;;;;;;;5041025;28;20072;-80
2023/04/17 10:00:13;;;;;;;30.17;20.88;;;;;;;;;;5036361;28;20044;-80
2023/04/17 10:02:43;;;;;;;29.25;20.40;;;;;;;;;;5050349;28;20480;-80
2023/04/17 10:05:12;;;;;;;29.20;20.55;;;;;;;;;;5054323;28;20040;-80
2023/04/17 10:07:39;;;;;;;26.13;19.02;;;;;;;;;;5037210;28;20072;-81
2023/04/17 10:10:08;;;;;;;27.50;19.83;;;;;;;;;;5035426;28;20534;-81
2023/04/17 10:12:43;;;;;;;26.30;19.00;;;;;;;;;;5057771;28;20049;-80
2023/04/17 10:15:13;;;;;;;26.15;18.45;;;;;;;;;;5058537;28;20049;-80
2023/04/17 10:17:39;;;;;;;25.77;17.35;;;;;;;;;;5055292;28;20121;-80
2023/04/17 10:20:18;;;;;;;25.27;17.65;;;;;;;;;;5070418;28;20116;-80
2023/04/17 10:22:47;;;;;;;19.73;15.10;;;;;;;;;;5044063;28;20861;-81
2023/04/17 10:25:13;;;;;;;21.02;15.82;;;;;;;;;;5054621;28;20120;-80
2023/04/17 10:27:40;;;;;;;23.02;15.77;;;;;;;;;;5057262;28;20535;-81
2023/04/17 10:30:09;;;;;;;22.05;16.38;;;;;;;;;;5053070;28;20072;-81
2023/04/17 10:32:35;;;;;;;23.42;16.17;;;;;;;;;;5041023;28;20503;-81
2023/04/17 10:35:03;;;;;;;23.50;16.13;;;;;;;;;;5045230;28;20102;-81
2023/04/17 10:37:50;;;;;;;22.35;16.42;;;;;;;;;;5056882;28;20070;-80
2023/04/17 10:40:20;;;;;;;23.58;16.33;;;;;;;;;;5047577;28;20169;-81
2023/04/17 10:43:02;;;;;;;22.55;16.95;;;;;;;;;;5054073;28;20074;-81
2023/04/17 10:45:48;;;;;;;22.08;17.63;;;;;;;;;;5047881;28;20132;-81
2023/04/17 10:48:19;;;;;;;22.35;17.42;;;;;;;;;;5057446;28;20037;-80
2023/04/17 10:50:46;;;;;;;23.33;18.80;;;;;;;;;;5055400;28;20033;-81
2023/04/17 10:53:32;;;;;;;27.30;19.85;;;;;;;;;;5061409;28;20056;-81
2023/04/17 10:55:58;;;;;;;23.63;18.30;;;;;;;;;;5039334;28;20175;-80
2023/04/17 10:58:24;;;;;;;24.05;16.67;;;;;;;;;;5041163;28;20147;-81
2023/04/17 11:00:56;;;;;;;21.67;16.40;;;;;;;;;;5061994;28;20048;-81
2023/04/17 11:03:22;;;;;;;19.83;16.13;;;;;;;;;;5037593;28;20094;-81
2023/04/17 11:05:49;;;;;;;21.02;16.23;;;;;;;;;;5058154;28;20052;-80
2023/04/17 11:08:15;;;;;;;22.15;16.45;;;;;;;;;;5032685;28;20220;-81
2023/04/17 11:10:41;;;;;;;20.95;16.08;;;;;;;;;;5054402;28;20040;-81
2023/04/17 11:13:07;;;;;;;21.98;16.00;;;;;;;;;;5057970;28;20044;-80
2023/04/17 11:15:34;;;;;;;23.80;18.15;;;;;;;;;;5057094;28;20040;-80
2023/04/17 11:18:01;;;;;;;25.73;18.67;;;;;;;;;;5063499;28;20056;-81
2023/04/17 11:20:31;;;;;;;26.77;19.23;;;;;;;;;;5057081;28;20063;-81
2023/04/17 11:23:01;;;;;;;27.77;19.48;;;;;;;;;;5060549;28;20084;-81
2023/04/17 11:25:32;;;;;;;29.90;19.33;;;;;;;;;;5038973;28;20040;-81
2023/04/17 11:27:59;;;;;;;27.98;19.02;;;;;;;;;;5037297;28;20171;-81
2023/04/17 11:30:32;;;;;;;26.77;19.02;;;;;;;;;;5040155;28;20187;-81
2023/04/17 11:33:02;;;;;;;25.85;18.92;;;;;;;;;;5034365;28;20102;-81
2023/04/17 11:35:29;;;;;;;22.05;16.25;;;;;;;;;;5036646;28;20132;-81
2023/04/17 11:38:19;;;;;;;20.08;15.13;;;;;;;;;;5038996;28;20045;-81
2023/04/17 11:40:58;;;;;;;19.45;14.57;;;;;;;;;;5062370;28;20045;-81
2023/04/17 11:43:24;;;;;;;18.83;15.75;;;;;;;;;;5043600;28;20068;-80
2023/04/17 11:45:51;;;;;;;17.58;14.52;;;;;;;;;;5039725;28;20088;-81
2023/04/17 11:48:21;;;;;;;17.38;13.70;;;;;;;;;;5058483;28;20047;-81
2023/04/17 11:50:48;;;;;;;17.50;14.10;;;;;;;;;;5057215;28;20115;-81
2023/04/17 11:53:15;;;;;;;21.90;15.43;;;;;;;;;;5036953;28;20136;-81
2023/04/17 11:55:41;;;;;;;19.08;14.27;;;;;;;;;;5038034;28;20080;-81
2023/04/17 11:58:08;;;;;;;20.33;13.80;;;;;;;;;;5040574;28;20051;-81
2023/04/17 12:00:36;;;;;;;21.15;13.85;;;;;;;;;;5040724;28;20039;-80
2023/04/17 12:03:02;;;;;;;18.35;13.65;;;;;;;;;;5053157;28;20499;-82
2023/04/17 12:05:30;;;;;;;17.00;13.13;;;;;;;;;;5050579;28;20440;-81
2023/04/17 12:08:03;;;;;;;17.17;14.20;;;;;;;;;;5052314;28;20062;-81
2023/04/17 12:10:29;;;;;;;;;;;;;;;;;;5036243;28;20044;-81
2023/04/17 12:12:55;;;;;;;20.33;15.32;;;;;;;;;;5068460;28;20030;-80
2023/04/17 12:15:21;;;;;;;21.92;16.55;;;;;;;;;;5035705;28;20555;-79
2023/04/17 12:17:47;;;;;;;20.42;15.23;;;;;;;;;;5047401;28;20060;-80
2023/04/17 12:20:13;;;;;;;19.85;15.20;;;;;;;;;;5058917;28;20489;-78
2023/04/17 12:22:39;;;;;;;19.85;16.10;;;;;;;;;;5034566;28;20040;-78
2023/04/17 12:25:06;;;;;;;19.33;15.65;;;;;;;;;;5034960;28;20091;-79
2023/04/17 12:27:35;;;;;;;21.17;16.70;;;;;;;;;;5042700;28;20055;-78
2023/04/17 12:30:01;;;;;;;24.13;17.25;;;;;;;;;;5040458;28;20049;-79
2023/04/17 12:32:27;;;;;;;22.77;17.67;;;;;;;;;;5057223;28;20396;-79
2023/04/17 12:34:54;;;;;;;21.52;17.65;;;;;;;;;;5053206;28;20053;-78
2023/04/17 12:37:21;;;;;;;24.50;18.52;;;;;;;;;;5052221;28;20056;-78
2023/04/17 12:39:47;;;;;;;21.45;17.70;;;;;;;;;;5051677;28;20068;-78
2023/04/17 12:42:13;;;;;;;22.95;18.38;;;;;;;;;;5053082;28;20475;-78
2023/04/17 12:44:39;;;;;;;23.88;18.25;;;;;;;;;;5053621;28;20086;-79
2023/04/17 12:47:05;;;;;;;22.85;17.10;;;;;;;;;;5034856;28;20124;-79
2023/04/17 12:49:31;;;;;;;23.60;16.50;;;;;;;;;;5059100;28;20059;-78
2023/04/17 12:51:57;;;;;;;22.67;17.08;;;;;;;;;;5039264;28;20210;-82
2023/04/17 12:54:23;;;;;;;21.55;17.40;;;;;;;;;;5036790;28;20055;-80
2023/04/17 12:56:50;;;;;;;24.17;16.95;;;;;;;;;;5019521;28;20077;-81
2023/04/17 12:59:16;;;;;;;21.38;17.52;;;;;;;;;;5046189;28;20352;-80
2023/04/17 13:01:42;;;;;;;23.02;18.33;;;;;;;;;;5029972;28;20052;-80
2023/04/17 13:04:08;;;;;;;23.90;19.23;;;;;;;;;;5013296;28;20038;-80
2023/04/17 13:06:34;;;;;;;20.70;17.15;;;;;;;;;;5011709;28;20041;-80
2023/04/17 13:09:00;;;;;;;20.33;18.13;;;;;;;;;;5031753;28;20041;-78
2023/04/17 13:11:26;;;;;;;19.63;16.98;;;;;;;;;;5014143;28;20124;-79
2023/04/17 13:13:52;;;;;;;19.40;16.48;;;;;;;;;;5016486;28;20681;-82
2023/04/17 13:16:19;;;;;;;24.02;17.45;;;;;;;;;;5017370;28;20037;-81
2023/04/17 13:18:45;;;;;;;21.13;18.10;;;;;;;;;;5015212;28;20550;-82
2023/04/17 13:21:11;;;;;;;21.60;18.50;;;;;;;;;;5036895;28;20120;-83
2023/04/17 13:23:37;;;;;;;24.85;18.90;;;;;;;;;;5027516;28;20477;-82
2023/04/17 13:26:03;;;;;;;24.15;17.98;;;;;;;;;;5034841;28;20478;-82
2023/04/17 13:28:29;;;;;;;21.58;18.10;;;;;;;;;;5032309;28;20088;-82
2023/04/17 13:30:55;;;;;;;21.02;18.73;;;;;;;;;;5017594;28;20040;-81
2023/04/17 13:33:21;;;;;;;21.45;18.08;;;;;;;;;;5034277;28;20179;-81
2023/04/17 13:35:49;;;;;;;20.17;17.92;;;;;;;;;;5016418;28;20049;-81
2023/04/17 13:38:15;;;;;;;21.60;18.88;;;;;;;;;;5036568;28;20131;-82
2023/04/17 13:40:41;;;;;;;20.88;18.67;;;;;;;;;;5013899;28;20080;-82
2023/04/17 13:43:07;;;;;;;20.13;17.95;;;;;;;;;;5034399;28;20046;-82
2023/04/17 13:45:34;;;;;;;19.92;17.60;;;;;;;;;;5027493;28;20144;-82
2023/04/17 13:48:00;;;;;;;21.10;18.38;;;;;;;;;;5035273;28;20056;-81
2023/04/17 13:50:26;;;;;;;22.05;18.55;;;;;;;;;;5012551;28;20095;-81
2023/04/17 13:52:52;;;;;;;20.65;18.20;;;;;;;;;;5032738;28;20128;-82
2023/04/17 13:55:22;;;;;;;26.58;19.90;;;;;;;;;;5029975;28;20041;-81
2023/04/17 13:57:48;;;;;;;23.70;18.23;;;;;;;;;;5058572;28;20114;-82
2023/04/17 14:00:14;;;;;;;22.55;18.10;;;;;;;;;;5037787;28;20489;-81
2023/04/17 14:02:41;;;;;;;24.48;19.02;;;;;;;;;;5052992;28;20464;-81
2023/04/17 14:05:07;;;;;;;23.10;19.27;;;;;;;;;;5033760;28;20053;-82
2023/04/17 14:07:33;;;;;;;20.85;18.55;;;;;;;;;;5038630;28;20126;-82
2023/04/17 14:09:59;;;;;;;20.77;17.55;;;;;;;;;;5042529;28;20451;-82
2023/04/17 14:12:25;;;;;;;24.33;18.88;;;;;;;;;;5056464;28;20390;-81
2023/04/17 14:14:52;;;;;;;23.15;18.35;;;;;;;;;;5061905;28;20047;-82
2023/04/17 14:17:18;;;;;;;20.02;17.92;;;;;;;;;;5042103;28;20045;-82
2023/04/17 14:19:44;;;;;;;21.58;17.90;;;;;;;;;;5043780;28;20063;-82